« Back
NWS Peachtree City, Ga » Text Product » MCN Terminal Aerodrome Forecast


Printer-friendly Version
Current Version              Previous Versions:   1  2  3  4  5  6  7  8  9  

Terminal Aerodrome Forecast

018
FTUS42 KFFC 271742
TAFMCN
TAF
KMCN 271742Z 2718/2818 28007KT P6SM BKN045
     FM280200 25005KT P6SM SCT250
     FM281500 25007KT P6SM SCT040=



USA.gov is the U.S. government's official web portal to all federal, state and local government web resources and services.